Station: Brewon  

  Atmospheric Gas Attenuation - ITU Rec 676-11   ----------------- dB/100km -----------------
Date Time Temp RH % AH g/m3 Dew Point Wind Direction Speed kph Gust kph Barometer mB Rainfall Since 9am 24GHz 47GHz 76GHz 122GHz 134GHz 241GHz
08/05 12:30 17.1 41 5.97 3.8 1013.1 0 13.9 21.1 28.6 74.5 62.7 213.7
08/05 12:20 16.6 41 5.79 3.3 1013.1 0 13.5 20.9 28.1 73.3 61.0 207.8
08/05 12:10 17 42 6.08 4 1013.1 0 14.1 21.2 29.0 75.7 64.0 218.4
08/05 12:00 16.1 41 5.62 2.9 1013.1 0 13.2 20.8 27.7 72.2 59.5 202.2
08/05 11:50 16.3 42 5.83 3.3 1013.1 0 13.6 21.1 28.4 74.0 61.7 210.2
08/05 11:40 16.1 41 5.62 2.8 1013.1 0 13.2 20.8 27.7 72.2 59.5 202.2
08/05 11:30 16.4 41 5.72 3.1 1013.1 0 13.4 20.9 28.0 72.9 60.4 205.5
08/05 11:20 16.2 43 5.93 3.6 1013.1 0 13.8 21.2 28.8 75.0 62.9 214.5
08/05 11:10 16 44 5.99 3.7 1013.1 0 14.0 21.4 29.0 75.7 63.8 217.4
08/05 11:00 15.4 43 5.65 2.9 1013.1 0 13.3 21.0 28.1 73.1 60.3 205.2
08/05 10:50 15.2 45 5.84 3.3 1013.1 0 13.7 21.3 28.8 75.1 62.7 213.4
08/05 10:40 15.4 45 5.91 3.5 1013.1 0 13.8 21.4 29.0 75.6 63.3 215.8
08/05 10:30 15.2 45 5.84 3.4 1013.1 0 13.7 21.3 28.8 75.1 62.7 213.4
08/05 10:20 14.6 46 5.76 3.1 1013.1 0 13.5 21.3 28.7 74.9 62.2 211.7
08/05 10:10 14.6 47 5.88 3.4 1013.1 0 13.8 21.5 29.2 76.0 63.6 216.6
08/05 10:00 14.3 47 5.77 3.2 1013.1 0 13.6 21.4 28.9 75.2 62.6 212.9
08/05 09:50 13.9 47 5.63 3 1013.1 0 13.3 21.3 28.5 74.3 61.2 208.2
08/05 09:40 13.5 49 5.73 3 1013.1 0 13.5 21.6 29.0 75.6 62.7 213.3
08/05 09:30 13.4 50 5.81 3.2 1013.1 0 13.7 21.7 29.3 76.5 63.7 216.9
08/05 09:20 12.8 51 5.71 2.9 1013.1 0 13.5 21.7 29.2 76.1 63.0 214.4
08/05 09:10 12.8 50 5.6 2.6 1013.1 0 13.2 21.5 28.8 75.0 61.7 209.7
08/05 09:00 12.4 51 5.57 2.6 1013.1 0 13.2 21.6 28.8 75.1 61.7 209.5
08/05 08:50 11.9 52 5.51 2.3 1013.1 0 13.1 21.6 28.8 75.0 61.3 208.3
08/05 08:40 11.5 52 5.37 2 1013.1 0 12.8 21.5 28.4 74.0 60.0 203.4
08/05 08:30 10.8 54 5.34 1.9 1013.1 0 12.8 21.6 28.5 74.3 60.1 203.9
08/05 08:20 9.9 57 5.32 1.8 1013.1 0 12.7 21.8 28.8 75.0 60.6 205.3
08/05 08:10 9.2 59 5.27 1.6 1013.1 0 12.7 21.9 28.8 75.1 60.5 205.0
08/05 08:00 8.3 62 5.23 1.5 1013.1 0 12.6 22.1 29.0 75.6 60.7 205.5
08/05 07:50 6.8 67 5.13 1.1 1013.1 0 12.4 22.3 29.2 76.0 60.6 205.0
08/05 07:40 5.7 70 4.98 0.6 1013.1 0 12.2 22.3 29.0 75.5 59.5 201.1
08/05 07:30 4.8 72 4.83 0.2 1013.1 0 11.9 22.3 28.7 74.8 58.3 196.6
08/05 07:20 4 76 4.84 0.1 1013.1 0 11.9 22.5 29.1 75.7 59.0 199.1
08/05 07:10 2.5 79 4.55 -0.8 1013.1 0 11.3 22.4 28.5 74.1 56.3 189.5
08/05 07:00 1.9 79 4.36 -1.3 1013.1 0 11.0 22.3 27.9 72.6 54.3 182.2
08/05 06:50 2.3 78 4.43 -1.2 1013.1 0 11.1 22.3 28.1 73.0 54.9 184.5
08/05 06:40 2.1 79 4.42 -1.2 1013.1 0 11.1 22.3 28.1 73.1 54.9 184.5
08/05 06:30 2 80 4.45 -1.1 1013.1 0 11.1 22.4 28.2 73.5 55.4 186.1
08/05 06:20 1.8 80 4.39 -1.3 1013.1 0 11.0 22.3 28.1 73.0 54.8 183.8
08/05 06:10 1.9 77 4.25 -1.6 1013.1 0 10.7 22.1 27.5 71.5 52.9 177.2
08/05 06:00 2.1 78 4.37 -1.3 1013.1 0 11.0 22.2 27.9 72.6 54.3 182.2
08/05 05:50 2.3 76 4.31 -1.5 1013.1 0 10.8 22.1 27.6 71.7 53.4 179.0
08/05 05:40 2.1 73 4.09 -2.3 1013.1 0 10.4 21.8 26.8 69.6 50.7 169.5
08/05 05:30 2.4 72 4.12 -2.1 1013.1 0 10.4 21.8 26.8 69.7 50.9 170.2
08/05 05:20 2.8 73 4.29 -1.6 1013.1 0 10.8 21.9 27.3 71.1 52.8 177.0
08/05 05:10 3.7 71 4.43 -1.1 1013.1 0 11.0 21.9 27.6 71.7 54.0 181.3
08/05 05:00 4 69 4.39 -1.2 1013.1 0 11.0 21.8 27.3 71.0 53.2 178.8
08/05 04:50 4.3 68 4.41 -1.1 1013.1 0 11.0 21.8 27.3 71.0 53.3 179.0
08/05 04:40 4.7 65 4.33 -1.3 1013.1 0 10.8 21.5 26.9 69.8 52.0 174.6
08/05 04:30 5.2 64 4.41 -1 1013.1 0 11.0 21.5 27.0 70.2 52.7 177.0
08/05 04:20 5.3 64 4.44 -1 1013.1 0 11.0 21.6 27.1 70.4 53.0 178.1
08/05 04:10 5.1 64 4.38 -1.2 1013.1 0 10.9 21.5 26.9 69.9 52.4 175.9
08/05 04:00 5.4 63 4.4 -1.1 1013.1 0 10.9 21.5 26.9 69.9 52.4 176.1
08/05 03:50 5.5 63 4.43 -1 1013.1 0 11.0 21.5 27.0 70.1 52.7 177.2
08/05 03:40 5.5 62 4.36 -1.2 1013.1 0 10.8 21.4 26.7 69.4 51.9 174.1
08/05 03:30 5.7 61 4.34 -1.2 1013.1 0 10.8 21.3 26.6 69.0 51.5 172.8
08/05 03:20 5.9 60 4.33 -1.3 1013.1 0 10.8 21.3 26.5 68.7 51.2 172.0
08/05 03:10 6.2 59 4.34 -1.2 1013.1 0 10.8 21.2 26.4 68.6 51.2 171.8
08/05 03:00 6.3 58 4.3 -1.3 1013.1 0 10.7 21.1 26.2 68.1 50.6 169.8
08/05 02:50 6.3 58 4.3 -1.4 1013.1 0 10.7 21.1 26.2 68.1 50.6 169.8
08/05 02:40 6.3 58 4.3 -1.4 1013.1 0 10.7 21.1 26.2 68.1 50.6 169.8
08/05 02:30 6.3 58 4.3 -1.3 1013.1 0 10.7 21.1 26.2 68.1 50.6 169.8
08/05 02:20 5.9 59 4.26 -1.5 1013.1 0 10.6 21.2 26.2 68.0 50.4 168.9
08/05 02:10 5.6 59 4.17 -1.8 1013.1 0 10.4 21.1 26.0 67.4 49.4 165.7
08/05 02:00 4.9 61 4.12 -2 1013.1 0 10.3 21.2 26.0 67.5 49.3 164.9
08/05 01:50 4.2 62 4 -2.5 1013.1 0 10.1 21.2 25.8 66.9 48.2 161.1
08/05 01:40 4.4 62 4.05 -2.3 1013.1 0 10.2 21.2 25.9 67.2 48.7 162.9
08/05 01:30 4.3 62 4.02 -2.3 1013.1 0 10.1 21.2 25.8 67.0 48.4 161.8
08/05 01:20 4.2 62 4 -2.5 1013.1 0 10.1 21.2 25.8 66.9 48.2 161.1
08/05 01:10 5.4 58 4.05 -2.2 1013.1 0 10.2 21.0 25.6 66.4 48.1 160.9
08/05 01:00 4.8 60 4.03 -2.3 1013.1 0 10.2 21.1 25.7 66.7 48.2 161.2
08/05 00:50 4.8 60 4.03 -2.3 1013.1 0 10.2 21.1 25.7 66.7 48.2 161.2
08/05 00:40 4.6 60 3.97 -2.5 1013.1 0 10.0 21.0 25.5 66.3 47.6 159.0
08/05 00:20 4.9 58 3.92 -2.7 1013.1 0 9.9 20.9 25.3 65.5 46.8 156.3
08/05 00:10 4.8 58 3.89 -2.8 1013.1 0 9.9 20.9 25.2 65.3 46.5 155.2
08/05 00:00 5.4 57 3.98 -2.4 1013.1 0 10.0 20.9 25.3 65.7 47.2 157.9
07/05 23:50 4.8 60 4.03 -2.3 1013.1 0 10.2 21.1 25.7 66.7 48.2 161.2
07/05 23:40 5.2 58 4 -2.4 1013.1 0 10.1 20.9 25.5 66.1 47.6 159.1
07/05 23:30 5.6 55 3.89 -2.7 1013.1 0 9.8 20.7 24.9 64.6 46.0 153.6
07/05 23:20 5.6 56 3.96 -2.5 1013.1 0 10.0 20.8 25.2 65.3 46.9 156.6
07/05 23:10 6.8 50 3.83 -2.9 1013.1 0 9.7 20.3 24.4 63.1 44.6 148.9
07/05 23:00 7.6 48 3.87 -2.7 1013.1 0 9.7 20.2 24.3 62.9 44.6 149.1
07/05 22:50 7.9 47 3.86 -2.7 1013.1 0 9.7 20.1 24.1 62.5 44.4 148.1
07/05 22:40 7.9 46 3.78 -3 1013.1 0 9.5 20.0 23.9 61.8 43.4 144.8
07/05 22:30 8.1 46 3.83 -2.8 1013.1 0 9.6 20.0 24.0 62.1 43.9 146.5
07/05 22:20 8.1 46 3.83 -2.8 1013.1 0 9.6 20.0 24.0 62.1 43.9 146.5
07/05 22:10 8.2 46 3.85 -2.8 1013.1 0 9.7 20.0 24.0 62.2 44.1 147.1
07/05 22:00 8 46 3.8 -2.9 1013.1 0 9.6 20.0 23.9 61.9 43.6 145.4
07/05 21:50 7.5 48 3.84 -2.8 1013.1 0 9.7 20.2 24.2 62.6 44.3 148.0
07/05 21:40 8 46 3.8 -2.9 1013.1 0 9.6 20.0 23.9 61.9 43.6 145.4
07/05 21:30 7.7 47 3.81 -2.9 1013.1 0 9.6 20.1 24.0 62.2 43.9 146.4
07/05 21:20 8.4 45 3.82 -2.9 1013.1 0 9.6 20.0 23.9 61.8 43.6 145.5
07/05 21:10 8.8 44 3.83 -2.8 1013.1 0 9.6 19.9 23.8 61.6 43.5 145.2
07/05 21:00 8.9 43 3.77 -3 1013.1 0 9.5 19.8 23.5 60.9 42.8 142.6
07/05 20:50 9.2 42 3.75 -3.1 1013.1 0 9.4 19.7 23.4 60.5 42.4 141.3
07/05 20:40 9.2 43 3.84 -2.7 1013.1 0 9.6 19.8 23.7 61.3 43.4 144.9
07/05 20:30 9.4 42 3.8 -2.8 1013.1 0 9.5 19.7 23.5 60.8 42.8 143.0
07/05 20:20 9.7 41 3.78 -2.9 1013.1 0 9.5 19.6 23.3 60.4 42.5 141.6
07/05 20:10 9.6 41 3.76 -3 1013.1 0 9.4 19.6 23.3 60.3 42.3 141.0
07/05 20:00 9.8 40 3.71 -3.1 1013.1 0 9.3 19.5 23.1 59.7 41.6 138.6
07/05 19:50 10.1 40 3.78 -2.9 1013.1 0 9.5 19.5 23.2 60.1 42.2 140.9

Last Refresh: 08-May-2026 12:08:50

Bureau of Meteorology